sensor_id;sensor_type;location;lat;lon;timestamp;P1;durP1;ratioP1;P2;durP2;ratioP2
27802;SDS011;15182;48.174;11.562;2023-06-22T00:01:56;3.38;;;3.17;;
27802;SDS011;15182;48.174;11.562;2023-06-22T00:04:24;3.38;;;3.17;;
27802;SDS011;15182;48.174;11.562;2023-06-22T00:06:53;3.10;;;2.90;;
27802;SDS011;15182;48.174;11.562;2023-06-22T00:09:21;3.40;;;3.15;;
27802;SDS011;15182;48.174;11.562;2023-06-22T00:11:49;3.60;;;3.30;;
27802;SDS011;15182;48.174;11.562;2023-06-22T00:14:16;3.85;;;3.33;;
27802;SDS011;15182;48.174;11.562;2023-06-22T00:16:44;4.18;;;3.25;;
27802;SDS011;15182;48.174;11.562;2023-06-22T00:19:14;3.83;;;3.08;;
27802;SDS011;15182;48.174;11.562;2023-06-22T00:21:42;3.70;;;3.17;;
27802;SDS011;15182;48.174;11.562;2023-06-22T00:24:14;3.42;;;3.20;;
27802;SDS011;15182;48.174;11.562;2023-06-22T00:26:42;3.70;;;3.40;;
27802;SDS011;15182;48.174;11.562;2023-06-22T00:29:09;5.13;;;3.40;;
27802;SDS011;15182;48.174;11.562;2023-06-22T00:31:37;4.60;;;3.17;;
27802;SDS011;15182;48.174;11.562;2023-06-22T00:34:05;3.30;;;3.15;;
27802;SDS011;15182;48.174;11.562;2023-06-22T00:36:34;5.00;;;3.58;;
27802;SDS011;15182;48.174;11.562;2023-06-22T00:39:03;3.80;;;3.20;;
27802;SDS011;15182;48.174;11.562;2023-06-22T00:41:33;3.42;;;3.13;;
27802;SDS011;15182;48.174;11.562;2023-06-22T00:44:01;4.03;;;3.70;;
27802;SDS011;15182;48.174;11.562;2023-06-22T00:46:31;3.30;;;2.92;;
27802;SDS011;15182;48.174;11.562;2023-06-22T00:48:59;3.33;;;3.10;;
27802;SDS011;15182;48.174;11.562;2023-06-22T00:51:28;4.47;;;4.10;;
27802;SDS011;15182;48.174;11.562;2023-06-22T00:53:55;3.28;;;3.08;;
27802;SDS011;15182;48.174;11.562;2023-06-22T00:56:24;3.60;;;3.40;;
27802;SDS011;15182;48.174;11.562;2023-06-22T00:58:53;3.38;;;3.25;;
27802;SDS011;15182;48.174;11.562;2023-06-22T01:01:23;3.85;;;3.13;;
27802;SDS011;15182;48.174;11.562;2023-06-22T01:03:51;4.03;;;3.13;;
27802;SDS011;15182;48.174;11.562;2023-06-22T01:06:24;3.53;;;3.33;;
27802;SDS011;15182;48.174;11.562;2023-06-22T01:09:06;3.20;;;3.10;;
27802;SDS011;15182;48.174;11.562;2023-06-22T01:11:42;3.45;;;2.88;;
27802;SDS011;15182;48.174;11.562;2023-06-22T01:14:19;3.30;;;3.10;;
27802;SDS011;15182;48.174;11.562;2023-06-22T01:16:56;3.50;;;3.30;;
27802;SDS011;15182;48.174;11.562;2023-06-22T01:19:35;3.35;;;3.25;;
27802;SDS011;15182;48.174;11.562;2023-06-22T01:22:08;3.88;;;3.67;;
27802;SDS011;15182;48.174;11.562;2023-06-22T01:24:42;4.05;;;3.85;;
27802;SDS011;15182;48.174;11.562;2023-06-22T01:27:26;3.63;;;3.42;;
27802;SDS011;15182;48.174;11.562;2023-06-22T01:30:09;4.35;;;3.58;;
27802;SDS011;15182;48.174;11.562;2023-06-22T01:32:39;3.58;;;3.28;;
27802;SDS011;15182;48.174;11.562;2023-06-22T01:35:08;4.45;;;3.55;;
27802;SDS011;15182;48.174;11.562;2023-06-22T01:37:37;3.58;;;3.35;;
27802;SDS011;15182;48.174;11.562;2023-06-22T01:40:06;4.15;;;3.40;;
27802;SDS011;15182;48.174;11.562;2023-06-22T01:42:35;3.53;;;3.22;;
27802;SDS011;15182;48.174;11.562;2023-06-22T01:45:07;3.13;;;2.92;;
27802;SDS011;15182;48.174;11.562;2023-06-22T01:47:37;4.50;;;3.70;;
27802;SDS011;15182;48.174;11.562;2023-06-22T01:50:06;3.20;;;3.00;;
27802;SDS011;15182;48.174;11.562;2023-06-22T01:52:36;3.70;;;3.50;;
27802;SDS011;15182;48.174;11.562;2023-06-22T01:55:04;4.15;;;3.50;;
27802;SDS011;15182;48.174;11.562;2023-06-22T01:57:33;3.78;;;3.42;;
27802;SDS011;15182;48.174;11.562;2023-06-22T02:00:03;4.10;;;3.80;;
27802;SDS011;15182;48.174;11.562;2023-06-22T02:02:43;3.22;;;3.10;;
27802;SDS011;15182;48.174;11.562;2023-06-22T02:05:16;6.50;;;3.60;;
27802;SDS011;15182;48.174;11.562;2023-06-22T02:07:52;4.10;;;3.65;;
27802;SDS011;15182;48.174;11.562;2023-06-22T02:10:29;3.20;;;2.95;;
27802;SDS011;15182;48.174;11.562;2023-06-22T02:12:58;4.03;;;3.60;;
27802;SDS011;15182;48.174;11.562;2023-06-22T02:15:27;4.22;;;3.38;;
27802;SDS011;15182;48.174;11.562;2023-06-22T02:17:56;3.67;;;3.25;;
27802;SDS011;15182;48.174;11.562;2023-06-22T02:20:24;4.03;;;3.58;;
27802;SDS011;15182;48.174;11.562;2023-06-22T02:22:52;3.42;;;3.25;;
27802;SDS011;15182;48.174;11.562;2023-06-22T02:25:20;3.80;;;3.08;;
27802;SDS011;15182;48.174;11.562;2023-06-22T02:27:48;4.80;;;3.17;;
27802;SDS011;15182;48.174;11.562;2023-06-22T02:30:16;4.30;;;3.60;;
27802;SDS011;15182;48.174;11.562;2023-06-22T02:32:44;3.60;;;3.40;;
27802;SDS011;15182;48.174;11.562;2023-06-22T02:35:16;3.97;;;3.75;;
27802;SDS011;15182;48.174;11.562;2023-06-22T02:37:45;4.05;;;3.58;;
27802;SDS011;15182;48.174;11.562;2023-06-22T02:40:12;4.80;;;3.97;;
27802;SDS011;15182;48.174;11.562;2023-06-22T02:42:40;5.18;;;3.60;;
27802;SDS011;15182;48.174;11.562;2023-06-22T02:45:08;3.90;;;3.60;;
27802;SDS011;15182;48.174;11.562;2023-06-22T02:47:37;4.10;;;3.80;;
27802;SDS011;15182;48.174;11.562;2023-06-22T02:50:05;3.80;;;3.50;;
27802;SDS011;15182;48.174;11.562;2023-06-22T02:52:36;4.15;;;3.83;;
27802;SDS011;15182;48.174;11.562;2023-06-22T02:55:04;3.40;;;3.03;;
27802;SDS011;15182;48.174;11.562;2023-06-22T02:57:34;3.65;;;3.47;;
27802;SDS011;15182;48.174;11.562;2023-06-22T03:00:02;4.10;;;3.50;;
27802;SDS011;15182;48.174;11.562;2023-06-22T03:02:43;4.32;;;3.90;;
27802;SDS011;15182;48.174;11.562;2023-06-22T03:05:11;3.90;;;3.60;;
27802;SDS011;15182;48.174;11.562;2023-06-22T03:07:41;6.05;;;3.35;;
27802;SDS011;15182;48.174;11.562;2023-06-22T03:10:10;5.22;;;3.20;;
27802;SDS011;15182;48.174;11.562;2023-06-22T03:12:40;3.78;;;3.58;;
27802;SDS011;15182;48.174;11.562;2023-06-22T03:15:09;3.67;;;3.38;;
27802;SDS011;15182;48.174;11.562;2023-06-22T03:17:39;3.30;;;3.20;;
27802;SDS011;15182;48.174;11.562;2023-06-22T03:20:08;4.50;;;3.63;;
27802;SDS011;15182;48.174;11.562;2023-06-22T03:22:38;4.40;;;3.58;;
27802;SDS011;15182;48.174;11.562;2023-06-22T03:25:09;3.65;;;3.50;;
27802;SDS011;15182;48.174;11.562;2023-06-22T03:27:41;3.67;;;3.47;;
27802;SDS011;15182;48.174;11.562;2023-06-22T03:30:11;3.70;;;3.50;;
27802;SDS011;15182;48.174;11.562;2023-06-22T03:32:39;5.10;;;3.55;;
27802;SDS011;15182;48.174;11.562;2023-06-22T03:35:08;3.67;;;3.47;;
27802;SDS011;15182;48.174;11.562;2023-06-22T03:37:39;4.00;;;3.80;;
27802;SDS011;15182;48.174;11.562;2023-06-22T03:40:07;4.57;;;3.83;;
27802;SDS011;15182;48.174;11.562;2023-06-22T03:42:38;5.57;;;3.65;;
27802;SDS011;15182;48.174;11.562;2023-06-22T03:45:06;7.38;;;4.10;;
27802;SDS011;15182;48.174;11.562;2023-06-22T03:47:35;4.80;;;3.92;;
27802;SDS011;15182;48.174;11.562;2023-06-22T03:50:03;3.97;;;3.72;;
27802;SDS011;15182;48.174;11.562;2023-06-22T03:52:32;4.53;;;4.05;;
27802;SDS011;15182;48.174;11.562;2023-06-22T03:54:59;4.65;;;4.20;;
27802;SDS011;15182;48.174;11.562;2023-06-22T03:57:29;4.55;;;4.15;;
27802;SDS011;15182;48.174;11.562;2023-06-22T03:59:57;3.90;;;3.67;;
27802;SDS011;15182;48.174;11.562;2023-06-22T04:02:25;4.72;;;4.47;;
27802;SDS011;15182;48.174;11.562;2023-06-22T04:04:52;6.78;;;3.97;;
27802;SDS011;15182;48.174;11.562;2023-06-22T04:07:20;4.57;;;3.95;;
27802;SDS011;15182;48.174;11.562;2023-06-22T04:09:48;4.55;;;4.15;;
27802;SDS011;15182;48.174;11.562;2023-06-22T04:12:16;4.90;;;3.83;;
27802;SDS011;15182;48.174;11.562;2023-06-22T04:14:45;5.20;;;4.10;;
27802;SDS011;15182;48.174;11.562;2023-06-22T04:17:13;3.80;;;3.50;;
27802;SDS011;15182;48.174;11.562;2023-06-22T04:19:41;4.05;;;3.72;;
27802;SDS011;15182;48.174;11.562;2023-06-22T04:22:09;5.57;;;4.32;;
27802;SDS011;15182;48.174;11.562;2023-06-22T04:24:37;5.50;;;4.00;;
27802;SDS011;15182;48.174;11.562;2023-06-22T04:27:05;7.13;;;4.13;;
27802;SDS011;15182;48.174;11.562;2023-06-22T04:29:33;5.97;;;4.00;;
27802;SDS011;15182;48.174;11.562;2023-06-22T04:32:02;5.72;;;3.85;;
27802;SDS011;15182;48.174;11.562;2023-06-22T04:34:32;5.68;;;4.15;;
27802;SDS011;15182;48.174;11.562;2023-06-22T04:36:59;4.45;;;4.05;;
27802;SDS011;15182;48.174;11.562;2023-06-22T04:39:27;4.57;;;4.15;;
27802;SDS011;15182;48.174;11.562;2023-06-22T04:41:55;5.00;;;4.53;;
27802;SDS011;15182;48.174;11.562;2023-06-22T04:44:26;4.97;;;4.25;;
27802;SDS011;15182;48.174;11.562;2023-06-22T04:46:55;4.10;;;3.60;;
27802;SDS011;15182;48.174;11.562;2023-06-22T04:49:27;7.68;;;4.25;;
27802;SDS011;15182;48.174;11.562;2023-06-22T04:51:58;3.83;;;3.50;;
27802;SDS011;15182;48.174;11.562;2023-06-22T04:54:26;4.85;;;4.10;;
27802;SDS011;15182;48.174;11.562;2023-06-22T04:56:54;6.80;;;3.95;;
27802;SDS011;15182;48.174;11.562;2023-06-22T04:59:23;4.95;;;4.10;;
27802;SDS011;15182;48.174;11.562;2023-06-22T05:01:53;5.00;;;4.35;;
27802;SDS011;15182;48.174;11.562;2023-06-22T05:04:21;4.95;;;4.18;;
27802;SDS011;15182;48.174;11.562;2023-06-22T05:06:51;4.63;;;4.32;;
27802;SDS011;15182;48.174;11.562;2023-06-22T05:09:19;6.65;;;4.35;;
27802;SDS011;15182;48.174;11.562;2023-06-22T05:11:47;4.60;;;4.03;;
27802;SDS011;15182;48.174;11.562;2023-06-22T05:14:15;9.05;;;4.15;;
27802;SDS011;15182;48.174;11.562;2023-06-22T05:16:44;8.05;;;3.75;;
27802;SDS011;15182;48.174;11.562;2023-06-22T05:19:12;6.47;;;3.95;;
27802;SDS011;15182;48.174;11.562;2023-06-22T05:21:40;4.18;;;3.88;;
27802;SDS011;15182;48.174;11.562;2023-06-22T05:24:09;4.20;;;3.95;;
27802;SDS011;15182;48.174;11.562;2023-06-22T05:26:37;6.22;;;4.40;;
27802;SDS011;15182;48.174;11.562;2023-06-22T05:29:05;6.25;;;4.32;;
27802;SDS011;15182;48.174;11.562;2023-06-22T05:31:33;4.47;;;4.03;;
27802;SDS011;15182;48.174;11.562;2023-06-22T05:34:01;4.65;;;4.25;;
27802;SDS011;15182;48.174;11.562;2023-06-22T05:36:29;4.10;;;3.80;;
27802;SDS011;15182;48.174;11.562;2023-06-22T05:38:57;8.43;;;4.05;;
27802;SDS011;15182;48.174;11.562;2023-06-22T05:41:26;4.57;;;4.18;;
27802;SDS011;15182;48.174;11.562;2023-06-22T05:43:54;8.38;;;4.60;;
27802;SDS011;15182;48.174;11.562;2023-06-22T05:46:22;4.28;;;3.95;;
27802;SDS011;15182;48.174;11.562;2023-06-22T05:48:50;6.13;;;4.68;;
27802;SDS011;15182;48.174;11.562;2023-06-22T05:51:18;5.50;;;4.70;;
27802;SDS011;15182;48.174;11.562;2023-06-22T05:53:45;11.43;;;5.15;;
27802;SDS011;15182;48.174;11.562;2023-06-22T05:56:15;6.97;;;4.25;;
27802;SDS011;15182;48.174;11.562;2023-06-22T05:58:45;7.22;;;4.38;;
27802;SDS011;15182;48.174;11.562;2023-06-22T06:01:13;6.57;;;4.72;;
27802;SDS011;15182;48.174;11.562;2023-06-22T06:03:41;5.20;;;4.30;;
27802;SDS011;15182;48.174;11.562;2023-06-22T06:06:10;5.03;;;4.63;;
27802;SDS011;15182;48.174;11.562;2023-06-22T06:08:38;5.20;;;4.80;;
27802;SDS011;15182;48.174;11.562;2023-06-22T06:11:06;6.35;;;4.82;;
27802;SDS011;15182;48.174;11.562;2023-06-22T06:13:34;7.70;;;5.00;;
27802;SDS011;15182;48.174;11.562;2023-06-22T06:16:03;6.05;;;4.95;;
27802;SDS011;15182;48.174;11.562;2023-06-22T06:18:31;5.50;;;4.95;;
27802;SDS011;15182;48.174;11.562;2023-06-22T06:20:59;5.57;;;4.90;;
27802;SDS011;15182;48.174;11.562;2023-06-22T06:23:26;6.70;;;5.03;;
27802;SDS011;15182;48.174;11.562;2023-06-22T06:25:54;6.18;;;4.90;;
27802;SDS011;15182;48.174;11.562;2023-06-22T06:28:22;5.80;;;5.20;;
27802;SDS011;15182;48.174;11.562;2023-06-22T06:30:51;6.13;;;5.28;;
27802;SDS011;15182;48.174;11.562;2023-06-22T06:33:20;6.22;;;5.35;;
27802;SDS011;15182;48.174;11.562;2023-06-22T06:35:48;7.50;;;5.00;;
27802;SDS011;15182;48.174;11.562;2023-06-22T06:38:16;6.70;;;5.10;;
27802;SDS011;15182;48.174;11.562;2023-06-22T06:40:44;6.22;;;5.05;;
27802;SDS011;15182;48.174;11.562;2023-06-22T06:43:13;6.68;;;5.30;;
27802;SDS011;15182;48.174;11.562;2023-06-22T06:45:41;6.32;;;5.68;;
27802;SDS011;15182;48.174;11.562;2023-06-22T06:48:08;5.93;;;5.40;;
27802;SDS011;15182;48.174;11.562;2023-06-22T06:50:37;6.88;;;5.50;;
27802;SDS011;15182;48.174;11.562;2023-06-22T06:53:05;6.72;;;5.55;;
27802;SDS011;15182;48.174;11.562;2023-06-22T06:55:33;5.88;;;5.38;;
27802;SDS011;15182;48.174;11.562;2023-06-22T06:58:01;5.22;;;4.75;;
27802;SDS011;15182;48.174;11.562;2023-06-22T07:00:31;6.15;;;5.57;;
27802;SDS011;15182;48.174;11.562;2023-06-22T07:02:59;6.40;;;5.22;;
27802;SDS011;15182;48.174;11.562;2023-06-22T07:05:27;7.18;;;5.72;;
27802;SDS011;15182;48.174;11.562;2023-06-22T07:07:56;5.70;;;5.20;;
27802;SDS011;15182;48.174;11.562;2023-06-22T07:10:23;7.82;;;5.28;;
27802;SDS011;15182;48.174;11.562;2023-06-22T07:12:51;9.10;;;5.47;;
27802;SDS011;15182;48.174;11.562;2023-06-22T07:15:19;7.70;;;5.78;;
27802;SDS011;15182;48.174;11.562;2023-06-22T07:17:48;7.28;;;5.18;;
27802;SDS011;15182;48.174;11.562;2023-06-22T07:20:15;9.10;;;6.22;;
27802;SDS011;15182;48.174;11.562;2023-06-22T07:22:45;8.00;;;5.07;;
27802;SDS011;15182;48.174;11.562;2023-06-22T07:25:14;16.45;;;6.55;;
27802;SDS011;15182;48.174;11.562;2023-06-22T07:27:44;9.60;;;5.50;;
27802;SDS011;15182;48.174;11.562;2023-06-22T07:30:14;7.50;;;5.70;;
27802;SDS011;15182;48.174;11.562;2023-06-22T07:32:41;10.57;;;5.78;;
27802;SDS011;15182;48.174;11.562;2023-06-22T07:35:09;7.53;;;5.57;;
27802;SDS011;15182;48.174;11.562;2023-06-22T07:37:37;6.03;;;5.40;;
27802;SDS011;15182;48.174;11.562;2023-06-22T07:40:06;10.20;;;5.57;;
27802;SDS011;15182;48.174;11.562;2023-06-22T07:42:36;7.60;;;5.82;;
27802;SDS011;15182;48.174;11.562;2023-06-22T07:45:05;8.05;;;5.75;;
27802;SDS011;15182;48.174;11.562;2023-06-22T07:47:34;9.45;;;5.55;;
27802;SDS011;15182;48.174;11.562;2023-06-22T07:50:02;6.32;;;5.18;;
27802;SDS011;15182;48.174;11.562;2023-06-22T07:52:31;10.90;;;5.30;;
27802;SDS011;15182;48.174;11.562;2023-06-22T07:54:59;5.90;;;5.40;;
27802;SDS011;15182;48.174;11.562;2023-06-22T07:57:28;7.20;;;5.85;;
27802;SDS011;15182;48.174;11.562;2023-06-22T08:00:00;7.43;;;5.80;;
27802;SDS011;15182;48.174;11.562;2023-06-22T08:02:38;6.40;;;5.22;;
27802;SDS011;15182;48.174;11.562;2023-06-22T08:05:07;7.53;;;5.30;;
27802;SDS011;15182;48.174;11.562;2023-06-22T08:07:35;7.40;;;5.80;;
27802;SDS011;15182;48.174;11.562;2023-06-22T08:10:04;5.43;;;4.82;;
27802;SDS011;15182;48.174;11.562;2023-06-22T08:12:33;11.45;;;5.25;;
27802;SDS011;15182;48.174;11.562;2023-06-22T08:15:02;6.95;;;5.88;;
27802;SDS011;15182;48.174;11.562;2023-06-22T08:17:32;8.85;;;4.88;;
27802;SDS011;15182;48.174;11.562;2023-06-22T08:19:59;8.63;;;5.28;;
27802;SDS011;15182;48.174;11.562;2023-06-22T08:22:31;13.88;;;5.80;;
27802;SDS011;15182;48.174;11.562;2023-06-22T08:24:59;7.60;;;5.88;;
27802;SDS011;15182;48.174;11.562;2023-06-22T08:27:27;12.60;;;4.97;;
27802;SDS011;15182;48.174;11.562;2023-06-22T08:29:56;8.65;;;5.47;;
27802;SDS011;15182;48.174;11.562;2023-06-22T08:32:26;11.60;;;5.43;;
27802;SDS011;15182;48.174;11.562;2023-06-22T08:34:54;12.02;;;5.30;;
27802;SDS011;15182;48.174;11.562;2023-06-22T08:37:23;8.50;;;5.32;;
27802;SDS011;15182;48.174;11.562;2023-06-22T08:39:56;8.50;;;5.20;;
27802;SDS011;15182;48.174;11.562;2023-06-22T08:42:24;12.23;;;5.25;;
27802;SDS011;15182;48.174;11.562;2023-06-22T08:44:52;6.85;;;4.72;;
27802;SDS011;15182;48.174;11.562;2023-06-22T08:47:19;6.30;;;5.63;;
27802;SDS011;15182;48.174;11.562;2023-06-22T08:49:50;7.00;;;5.38;;
27802;SDS011;15182;48.174;11.562;2023-06-22T08:52:18;12.27;;;5.28;;
27802;SDS011;15182;48.174;11.562;2023-06-22T08:54:46;11.13;;;5.60;;
27802;SDS011;15182;48.174;11.562;2023-06-22T08:57:14;8.27;;;5.85;;
27802;SDS011;15182;48.174;11.562;2023-06-22T08:59:42;9.50;;;5.68;;
27802;SDS011;15182;48.174;11.562;2023-06-22T09:02:10;7.13;;;5.55;;
27802;SDS011;15182;48.174;11.562;2023-06-22T09:04:38;9.30;;;5.57;;
27802;SDS011;15182;48.174;11.562;2023-06-22T09:07:08;13.63;;;5.72;;
27802;SDS011;15182;48.174;11.562;2023-06-22T09:09:37;6.15;;;5.18;;
27802;SDS011;15182;48.174;11.562;2023-06-22T09:12:05;8.90;;;5.57;;
27802;SDS011;15182;48.174;11.562;2023-06-22T09:14:34;10.05;;;5.30;;
27802;SDS011;15182;48.174;11.562;2023-06-22T09:17:03;9.48;;;5.40;;
27802;SDS011;15182;48.174;11.562;2023-06-22T09:19:31;7.88;;;5.68;;
27802;SDS011;15182;48.174;11.562;2023-06-22T09:21:59;12.73;;;5.90;;
27802;SDS011;15182;48.174;11.562;2023-06-22T09:24:29;8.50;;;5.60;;
27802;SDS011;15182;48.174;11.562;2023-06-22T09:26:57;9.85;;;5.53;;
27802;SDS011;15182;48.174;11.562;2023-06-22T09:29:24;7.78;;;5.47;;
27802;SDS011;15182;48.174;11.562;2023-06-22T09:31:52;13.00;;;5.47;;
27802;SDS011;15182;48.174;11.562;2023-06-22T09:34:21;23.35;;;7.07;;
27802;SDS011;15182;48.174;11.562;2023-06-22T09:36:49;12.23;;;5.72;;
27802;SDS011;15182;48.174;11.562;2023-06-22T09:39:17;9.85;;;5.60;;
27802;SDS011;15182;48.174;11.562;2023-06-22T09:41:46;6.45;;;5.90;;
27802;SDS011;15182;48.174;11.562;2023-06-22T09:44:14;9.65;;;5.43;;
27802;SDS011;15182;48.174;11.562;2023-06-22T09:46:42;8.48;;;5.47;;
27802;SDS011;15182;48.174;11.562;2023-06-22T09:49:10;6.50;;;5.30;;
27802;SDS011;15182;48.174;11.562;2023-06-22T09:51:37;9.02;;;5.70;;
27802;SDS011;15182;48.174;11.562;2023-06-22T09:54:05;8.50;;;5.78;;
27802;SDS011;15182;48.174;11.562;2023-06-22T09:56:33;10.07;;;5.18;;
27802;SDS011;15182;48.174;11.562;2023-06-22T09:59:02;11.75;;;5.10;;
27802;SDS011;15182;48.174;11.562;2023-06-22T10:01:30;12.00;;;6.43;;
27802;SDS011;15182;48.174;11.562;2023-06-22T10:03:58;12.77;;;5.07;;
27802;SDS011;15182;48.174;11.562;2023-06-22T10:06:25;7.38;;;5.43;;
27802;SDS011;15182;48.174;11.562;2023-06-22T10:08:53;8.38;;;5.32;;
27802;SDS011;15182;48.174;11.562;2023-06-22T10:11:21;13.07;;;6.00;;
27802;SDS011;15182;48.174;11.562;2023-06-22T10:13:52;10.63;;;5.43;;
27802;SDS011;15182;48.174;11.562;2023-06-22T10:16:23;12.95;;;5.38;;
27802;SDS011;15182;48.174;11.562;2023-06-22T10:18:57;9.65;;;5.13;;
27802;SDS011;15182;48.174;11.562;2023-06-22T10:21:24;10.35;;;4.63;;
27802;SDS011;15182;48.174;11.562;2023-06-22T10:23:54;8.30;;;5.88;;
27802;SDS011;15182;48.174;11.562;2023-06-22T10:26:22;8.40;;;5.72;;
27802;SDS011;15182;48.174;11.562;2023-06-22T10:28:50;9.25;;;5.40;;
27802;SDS011;15182;48.174;11.562;2023-06-22T10:31:18;12.18;;;5.28;;
27802;SDS011;15182;48.174;11.562;2023-06-22T10:33:48;8.48;;;5.70;;
27802;SDS011;15182;48.174;11.562;2023-06-22T10:36:16;6.97;;;5.60;;
27802;SDS011;15182;48.174;11.562;2023-06-22T10:38:44;8.65;;;6.00;;
27802;SDS011;15182;48.174;11.562;2023-06-22T10:41:12;9.25;;;5.55;;
27802;SDS011;15182;48.174;11.562;2023-06-22T10:43:40;9.50;;;5.93;;
27802;SDS011;15182;48.174;11.562;2023-06-22T10:46:08;7.78;;;5.75;;
27802;SDS011;15182;48.174;11.562;2023-06-22T10:48:36;7.10;;;5.05;;
27802;SDS011;15182;48.174;11.562;2023-06-22T10:51:05;11.77;;;5.65;;
27802;SDS011;15182;48.174;11.562;2023-06-22T10:53:33;7.25;;;5.88;;
27802;SDS011;15182;48.174;11.562;2023-06-22T10:56:01;9.35;;;5.65;;
27802;SDS011;15182;48.174;11.562;2023-06-22T10:58:29;10.68;;;5.35;;
27802;SDS011;15182;48.174;11.562;2023-06-22T11:00:56;11.80;;;5.65;;
27802;SDS011;15182;48.174;11.562;2023-06-22T11:03:24;6.82;;;5.68;;
27802;SDS011;15182;48.174;11.562;2023-06-22T11:05:52;11.48;;;5.38;;
27802;SDS011;15182;48.174;11.562;2023-06-22T11:08:21;7.75;;;5.45;;
27802;SDS011;15182;48.174;11.562;2023-06-22T11:10:50;7.40;;;5.07;;
27802;SDS011;15182;48.174;11.562;2023-06-22T11:13:18;14.38;;;5.35;;
27802;SDS011;15182;48.174;11.562;2023-06-22T11:15:46;9.05;;;5.07;;
27802;SDS011;15182;48.174;11.562;2023-06-22T11:18:14;8.68;;;5.40;;
27802;SDS011;15182;48.174;11.562;2023-06-22T11:20:42;11.60;;;5.85;;
27802;SDS011;15182;48.174;11.562;2023-06-22T11:23:10;7.55;;;5.18;;
27802;SDS011;15182;48.174;11.562;2023-06-22T11:25:40;7.85;;;5.22;;
27802;SDS011;15182;48.174;11.562;2023-06-22T11:28:08;11.13;;;5.53;;
27802;SDS011;15182;48.174;11.562;2023-06-22T11:30:36;14.52;;;5.50;;
27802;SDS011;15182;48.174;11.562;2023-06-22T11:33:03;10.18;;;5.80;;
27802;SDS011;15182;48.174;11.562;2023-06-22T11:35:31;10.48;;;5.60;;
27802;SDS011;15182;48.174;11.562;2023-06-22T11:37:59;12.88;;;5.47;;
27802;SDS011;15182;48.174;11.562;2023-06-22T11:40:27;8.57;;;5.82;;
27802;SDS011;15182;48.174;11.562;2023-06-22T11:42:56;5.60;;;5.10;;
27802;SDS011;15182;48.174;11.562;2023-06-22T11:45:23;14.60;;;5.68;;
27802;SDS011;15182;48.174;11.562;2023-06-22T11:47:51;5.90;;;5.07;;
27802;SDS011;15182;48.174;11.562;2023-06-22T11:50:19;10.35;;;6.03;;
27802;SDS011;15182;48.174;11.562;2023-06-22T11:52:47;8.88;;;5.35;;
27802;SDS011;15182;48.174;11.562;2023-06-22T11:55:15;13.73;;;5.30;;
27802;SDS011;15182;48.174;11.562;2023-06-22T11:57:52;11.55;;;5.53;;
27802;SDS011;15182;48.174;11.562;2023-06-22T12:00:22;10.65;;;5.50;;
27802;SDS011;15182;48.174;11.562;2023-06-22T12:02:50;8.90;;;6.05;;
27802;SDS011;15182;48.174;11.562;2023-06-22T12:05:19;8.13;;;5.43;;
27802;SDS011;15182;48.174;11.562;2023-06-22T12:07:48;13.90;;;6.45;;
27802;SDS011;15182;48.174;11.562;2023-06-22T12:10:15;15.13;;;5.80;;
27802;SDS011;15182;48.174;11.562;2023-06-22T12:12:44;7.43;;;5.13;;
27802;SDS011;15182;48.174;11.562;2023-06-22T12:15:12;7.63;;;5.40;;
27802;SDS011;15182;48.174;11.562;2023-06-22T12:17:41;11.88;;;5.70;;
27802;SDS011;15182;48.174;11.562;2023-06-22T12:20:09;8.45;;;5.70;;
27802;SDS011;15182;48.174;11.562;2023-06-22T12:22:38;14.00;;;5.55;;
27802;SDS011;15182;48.174;11.562;2023-06-22T12:25:06;11.77;;;5.82;;
27802;SDS011;15182;48.174;11.562;2023-06-22T12:27:34;6.72;;;5.38;;
27802;SDS011;15182;48.174;11.562;2023-06-22T12:30:03;11.23;;;6.28;;
27802;SDS011;15182;48.174;11.562;2023-06-22T12:32:32;8.85;;;5.78;;
27802;SDS011;15182;48.174;11.562;2023-06-22T12:35:01;13.88;;;5.65;;
27802;SDS011;15182;48.174;11.562;2023-06-22T12:37:29;7.88;;;5.40;;
27802;SDS011;15182;48.174;11.562;2023-06-22T12:39:58;11.13;;;5.35;;
27802;SDS011;15182;48.174;11.562;2023-06-22T12:42:26;7.38;;;5.63;;
27802;SDS011;15182;48.174;11.562;2023-06-22T12:44:54;5.93;;;4.90;;
27802;SDS011;15182;48.174;11.562;2023-06-22T12:47:21;8.93;;;6.18;;
27802;SDS011;15182;48.174;11.562;2023-06-22T12:49:49;7.88;;;5.30;;
27802;SDS011;15182;48.174;11.562;2023-06-22T12:52:18;8.15;;;6.05;;
27802;SDS011;15182;48.174;11.562;2023-06-22T12:54:46;7.85;;;4.82;;
27802;SDS011;15182;48.174;11.562;2023-06-22T12:57:14;5.35;;;4.55;;
27802;SDS011;15182;48.174;11.562;2023-06-22T12:59:43;11.07;;;5.07;;
27802;SDS011;15182;48.174;11.562;2023-06-22T13:02:11;11.02;;;5.30;;
27802;SDS011;15182;48.174;11.562;2023-06-22T13:04:39;7.32;;;5.05;;
27802;SDS011;15182;48.174;11.562;2023-06-22T13:07:07;13.05;;;5.28;;
27802;SDS011;15182;48.174;11.562;2023-06-22T13:09:37;9.73;;;5.68;;
27802;SDS011;15182;48.174;11.562;2023-06-22T13:12:05;9.85;;;4.97;;
27802;SDS011;15182;48.174;11.562;2023-06-22T13:14:33;11.77;;;5.18;;
27802;SDS011;15182;48.174;11.562;2023-06-22T13:17:01;7.97;;;4.68;;
27802;SDS011;15182;48.174;11.562;2023-06-22T13:19:29;6.95;;;4.93;;
27802;SDS011;15182;48.174;11.562;2023-06-22T13:21:58;10.38;;;4.85;;
27802;SDS011;15182;48.174;11.562;2023-06-22T13:24:28;6.88;;;5.60;;
27802;SDS011;15182;48.174;11.562;2023-06-22T13:26:57;8.77;;;5.05;;
27802;SDS011;15182;48.174;11.562;2023-06-22T13:29:25;10.85;;;5.40;;
27802;SDS011;15182;48.174;11.562;2023-06-22T13:31:52;10.55;;;5.00;;
27802;SDS011;15182;48.174;11.562;2023-06-22T13:34:23;6.88;;;4.95;;
27802;SDS011;15182;48.174;11.562;2023-06-22T13:36:50;14.77;;;4.97;;
27802;SDS011;15182;48.174;11.562;2023-06-22T13:39:18;9.38;;;5.10;;
27802;SDS011;15182;48.174;11.562;2023-06-22T13:41:46;5.45;;;4.93;;
27802;SDS011;15182;48.174;11.562;2023-06-22T13:44:15;10.65;;;5.10;;
27802;SDS011;15182;48.174;11.562;2023-06-22T13:46:43;10.38;;;5.07;;
27802;SDS011;15182;48.174;11.562;2023-06-22T13:49:11;9.43;;;5.10;;
27802;SDS011;15182;48.174;11.562;2023-06-22T13:51:38;11.23;;;5.15;;
27802;SDS011;15182;48.174;11.562;2023-06-22T13:54:06;6.43;;;5.00;;
27802;SDS011;15182;48.174;11.562;2023-06-22T13:56:34;8.75;;;4.63;;
27802;SDS011;15182;48.174;11.562;2023-06-22T13:59:02;12.15;;;4.78;;
27802;SDS011;15182;48.174;11.562;2023-06-22T14:01:31;10.63;;;4.72;;
27802;SDS011;15182;48.174;11.562;2023-06-22T14:03:59;7.53;;;4.45;;
27802;SDS011;15182;48.174;11.562;2023-06-22T14:06:27;10.32;;;5.00;;
27802;SDS011;15182;48.174;11.562;2023-06-22T14:08:55;6.68;;;5.28;;
27802;SDS011;15182;48.174;11.562;2023-06-22T14:11:24;7.70;;;4.72;;
27802;SDS011;15182;48.174;11.562;2023-06-22T14:13:52;7.60;;;5.32;;
27802;SDS011;15182;48.174;11.562;2023-06-22T14:16:19;6.70;;;4.78;;
27802;SDS011;15182;48.174;11.562;2023-06-22T14:18:48;17.35;;;4.65;;
27802;SDS011;15182;48.174;11.562;2023-06-22T14:21:16;7.45;;;5.18;;
27802;SDS011;15182;48.174;11.562;2023-06-22T14:23:44;10.50;;;5.00;;
27802;SDS011;15182;48.174;11.562;2023-06-22T14:26:15;9.98;;;4.35;;
27802;SDS011;15182;48.174;11.562;2023-06-22T14:28:44;13.10;;;5.10;;
27802;SDS011;15182;48.174;11.562;2023-06-22T14:31:14;8.98;;;5.00;;
27802;SDS011;15182;48.174;11.562;2023-06-22T14:33:44;11.00;;;4.50;;
27802;SDS011;15182;48.174;11.562;2023-06-22T14:36:15;6.32;;;4.28;;
27802;SDS011;15182;48.174;11.562;2023-06-22T14:38:44;7.88;;;5.00;;
27802;SDS011;15182;48.174;11.562;2023-06-22T14:41:12;18.42;;;4.57;;